sensor_id;sensor_type;location;lat;lon;timestamp;temperature;humidity
10282;DHT22;5186;59.472;18.048;2023-11-22T00:01:52;-3.80;99.90
10282;DHT22;5186;59.472;18.048;2023-11-22T00:04:18;-3.90;99.90
10282;DHT22;5186;59.472;18.048;2023-11-22T00:06:45;-3.90;99.90
10282;DHT22;5186;59.472;18.048;2023-11-22T00:09:10;-3.90;99.90
10282;DHT22;5186;59.472;18.048;2023-11-22T00:11:36;-3.90;99.90
10282;DHT22;5186;59.472;18.048;2023-11-22T00:14:01;-4.00;99.90
10282;DHT22;5186;59.472;18.048;2023-11-22T00:16:28;-4.00;99.90
10282;DHT22;5186;59.472;18.048;2023-11-22T00:18:53;-4.00;99.90
10282;DHT22;5186;59.472;18.048;2023-11-22T00:21:19;-4.00;99.90
10282;DHT22;5186;59.472;18.048;2023-11-22T00:23:45;-4.00;99.90
10282;DHT22;5186;59.472;18.048;2023-11-22T00:26:12;-4.00;99.90
10282;DHT22;5186;59.472;18.048;2023-11-22T00:28:37;-4.10;99.90
10282;DHT22;5186;59.472;18.048;2023-11-22T00:31:03;-4.10;99.90
10282;DHT22;5186;59.472;18.048;2023-11-22T00:33:28;-4.10;99.90
10282;DHT22;5186;59.472;18.048;2023-11-22T00:35:54;-4.20;99.90
10282;DHT22;5186;59.472;18.048;2023-11-22T00:38:22;-4.20;99.90
10282;DHT22;5186;59.472;18.048;2023-11-22T00:40:47;-4.20;99.90
10282;DHT22;5186;59.472;18.048;2023-11-22T00:43:13;-4.30;99.90
10282;DHT22;5186;59.472;18.048;2023-11-22T00:45:38;-4.30;99.90
10282;DHT22;5186;59.472;18.048;2023-11-22T00:48:04;-4.30;99.90
10282;DHT22;5186;59.472;18.048;2023-11-22T00:50:29;-4.30;99.90
10282;DHT22;5186;59.472;18.048;2023-11-22T00:52:55;-4.30;99.90
10282;DHT22;5186;59.472;18.048;2023-11-22T00:55:21;-4.40;99.90
10282;DHT22;5186;59.472;18.048;2023-11-22T00:57:46;-4.40;99.90
10282;DHT22;5186;59.472;18.048;2023-11-22T01:00:12;-4.40;99.90
10282;DHT22;5186;59.472;18.048;2023-11-22T01:02:39;-4.40;99.90
10282;DHT22;5186;59.472;18.048;2023-11-22T01:05:08;-4.50;99.90
10282;DHT22;5186;59.472;18.048;2023-11-22T01:07:37;-4.50;99.90
10282;DHT22;5186;59.472;18.048;2023-11-22T01:10:03;-4.50;99.90
10282;DHT22;5186;59.472;18.048;2023-11-22T01:12:29;-4.50;99.90
10282;DHT22;5186;59.472;18.048;2023-11-22T01:14:55;-4.50;99.90
10282;DHT22;5186;59.472;18.048;2023-11-22T01:17:20;-4.60;99.90
10282;DHT22;5186;59.472;18.048;2023-11-22T01:19:46;-4.50;99.90
10282;DHT22;5186;59.472;18.048;2023-11-22T01:22:12;-4.60;99.90
10282;DHT22;5186;59.472;18.048;2023-11-22T01:24:37;-4.70;99.90
10282;DHT22;5186;59.472;18.048;2023-11-22T01:27:03;-4.70;99.90
10282;DHT22;5186;59.472;18.048;2023-11-22T01:29:30;-4.60;99.90
10282;DHT22;5186;59.472;18.048;2023-11-22T01:31:56;-4.70;99.90
10282;DHT22;5186;59.472;18.048;2023-11-22T01:34:21;-4.70;99.90
10282;DHT22;5186;59.472;18.048;2023-11-22T01:36:50;-4.70;99.90
10282;DHT22;5186;59.472;18.048;2023-11-22T01:39:15;-4.80;99.90
10282;DHT22;5186;59.472;18.048;2023-11-22T01:41:44;-4.80;99.90
10282;DHT22;5186;59.472;18.048;2023-11-22T01:44:09;-4.80;99.90
10282;DHT22;5186;59.472;18.048;2023-11-22T01:46:35;-4.80;99.90
10282;DHT22;5186;59.472;18.048;2023-11-22T01:49:01;-4.80;99.90
10282;DHT22;5186;59.472;18.048;2023-11-22T01:51:27;-4.80;99.90
10282;DHT22;5186;59.472;18.048;2023-11-22T01:53:55;-4.80;99.90
10282;DHT22;5186;59.472;18.048;2023-11-22T01:56:26;-4.80;99.90
10282;DHT22;5186;59.472;18.048;2023-11-22T01:58:53;-4.80;99.90
10282;DHT22;5186;59.472;18.048;2023-11-22T02:01:20;-4.80;99.90
10282;DHT22;5186;59.472;18.048;2023-11-22T02:03:46;-4.90;99.90
10282;DHT22;5186;59.472;18.048;2023-11-22T02:06:17;-4.90;99.90
10282;DHT22;5186;59.472;18.048;2023-11-22T02:08:43;-4.90;99.90
10282;DHT22;5186;59.472;18.048;2023-11-22T02:11:09;-4.90;99.90
10282;DHT22;5186;59.472;18.048;2023-11-22T02:13:35;-4.90;99.90
10282;DHT22;5186;59.472;18.048;2023-11-22T02:16:02;-5.00;99.90
10282;DHT22;5186;59.472;18.048;2023-11-22T02:18:28;-5.00;99.90
10282;DHT22;5186;59.472;18.048;2023-11-22T02:20:55;-5.00;99.90
10282;DHT22;5186;59.472;18.048;2023-11-22T02:23:21;-5.00;99.90
10282;DHT22;5186;59.472;18.048;2023-11-22T02:25:47;-5.00;99.90
10282;DHT22;5186;59.472;18.048;2023-11-22T02:28:12;-5.00;99.90
10282;DHT22;5186;59.472;18.048;2023-11-22T02:30:39;-5.10;99.90
10282;DHT22;5186;59.472;18.048;2023-11-22T02:33:04;-5.10;99.90
10282;DHT22;5186;59.472;18.048;2023-11-22T02:35:30;-5.10;99.90
10282;DHT22;5186;59.472;18.048;2023-11-22T02:38:00;-5.10;99.90
10282;DHT22;5186;59.472;18.048;2023-11-22T02:40:25;-5.10;99.90
10282;DHT22;5186;59.472;18.048;2023-11-22T02:42:53;-5.10;99.90
10282;DHT22;5186;59.472;18.048;2023-11-22T02:45:20;-5.10;99.90
10282;DHT22;5186;59.472;18.048;2023-11-22T02:47:48;-5.20;99.90
10282;DHT22;5186;59.472;18.048;2023-11-22T02:50:15;-5.20;99.90
10282;DHT22;5186;59.472;18.048;2023-11-22T02:52:41;-5.20;99.90
10282;DHT22;5186;59.472;18.048;2023-11-22T02:55:07;-5.20;99.90
10282;DHT22;5186;59.472;18.048;2023-11-22T02:57:37;-5.20;99.90
10282;DHT22;5186;59.472;18.048;2023-11-22T03:00:05;-5.20;99.90
10282;DHT22;5186;59.472;18.048;2023-11-22T03:02:31;-5.30;99.90
10282;DHT22;5186;59.472;18.048;2023-11-22T03:04:57;-5.30;99.90
10282;DHT22;5186;59.472;18.048;2023-11-22T03:07:24;-5.30;99.90
10282;DHT22;5186;59.472;18.048;2023-11-22T03:09:49;-5.30;99.90
10282;DHT22;5186;59.472;18.048;2023-11-22T03:12:15;-5.30;99.90
10282;DHT22;5186;59.472;18.048;2023-11-22T03:14:41;-5.30;99.90
10282;DHT22;5186;59.472;18.048;2023-11-22T03:17:07;-5.30;99.90
10282;DHT22;5186;59.472;18.048;2023-11-22T03:19:33;-5.40;99.90
10282;DHT22;5186;59.472;18.048;2023-11-22T03:22:02;-5.40;99.90
10282;DHT22;5186;59.472;18.048;2023-11-22T03:24:32;-5.40;99.90
10282;DHT22;5186;59.472;18.048;2023-11-22T03:26:59;-5.30;99.90
10282;DHT22;5186;59.472;18.048;2023-11-22T03:29:25;-5.30;99.90
10282;DHT22;5186;59.472;18.048;2023-11-22T03:31:51;-5.40;99.90
10282;DHT22;5186;59.472;18.048;2023-11-22T03:34:18;-5.40;99.90
10282;DHT22;5186;59.472;18.048;2023-11-22T03:36:43;-5.40;99.90
10282;DHT22;5186;59.472;18.048;2023-11-22T03:39:09;-5.40;99.90
10282;DHT22;5186;59.472;18.048;2023-11-22T03:41:35;-5.40;99.90
10282;DHT22;5186;59.472;18.048;2023-11-22T03:44:03;-5.50;99.90
10282;DHT22;5186;59.472;18.048;2023-11-22T03:46:29;-5.50;99.90
10282;DHT22;5186;59.472;18.048;2023-11-22T03:48:55;-5.50;99.90
10282;DHT22;5186;59.472;18.048;2023-11-22T03:51:21;-5.50;99.90
10282;DHT22;5186;59.472;18.048;2023-11-22T03:53:46;-5.50;99.90
10282;DHT22;5186;59.472;18.048;2023-11-22T03:56:12;-5.50;99.90
10282;DHT22;5186;59.472;18.048;2023-11-22T03:58:37;-5.60;99.90
10282;DHT22;5186;59.472;18.048;2023-11-22T04:01:05;-5.60;99.90
10282;DHT22;5186;59.472;18.048;2023-11-22T04:03:31;-5.60;99.90
10282;DHT22;5186;59.472;18.048;2023-11-22T04:05:57;-5.60;99.90
10282;DHT22;5186;59.472;18.048;2023-11-22T04:08:23;-5.60;99.90
10282;DHT22;5186;59.472;18.048;2023-11-22T04:10:49;-5.60;99.90
10282;DHT22;5186;59.472;18.048;2023-11-22T04:13:14;-5.60;99.90
10282;DHT22;5186;59.472;18.048;2023-11-22T04:15:40;-5.60;99.90
10282;DHT22;5186;59.472;18.048;2023-11-22T04:18:06;-5.60;99.90
10282;DHT22;5186;59.472;18.048;2023-11-22T04:20:31;-5.60;99.90
10282;DHT22;5186;59.472;18.048;2023-11-22T04:22:57;-5.70;99.90
10282;DHT22;5186;59.472;18.048;2023-11-22T04:25:22;-5.70;99.90
10282;DHT22;5186;59.472;18.048;2023-11-22T04:27:49;-5.70;99.90
10282;DHT22;5186;59.472;18.048;2023-11-22T04:30:14;-5.70;99.90
10282;DHT22;5186;59.472;18.048;2023-11-22T04:32:42;-5.70;99.90
10282;DHT22;5186;59.472;18.048;2023-11-22T04:35:08;-5.70;99.90
10282;DHT22;5186;59.472;18.048;2023-11-22T04:37:35;-5.70;99.90
10282;DHT22;5186;59.472;18.048;2023-11-22T04:40:01;-5.70;99.90
10282;DHT22;5186;59.472;18.048;2023-11-22T04:42:29;-5.70;99.90
10282;DHT22;5186;59.472;18.048;2023-11-22T04:44:54;-5.70;99.90
10282;DHT22;5186;59.472;18.048;2023-11-22T04:47:20;-5.70;99.90
10282;DHT22;5186;59.472;18.048;2023-11-22T04:49:47;-5.70;99.90
10282;DHT22;5186;59.472;18.048;2023-11-22T04:52:13;-5.70;99.90
10282;DHT22;5186;59.472;18.048;2023-11-22T04:54:39;-5.60;99.90
10282;DHT22;5186;59.472;18.048;2023-11-22T04:57:05;-5.70;99.90
10282;DHT22;5186;59.472;18.048;2023-11-22T04:59:31;-5.70;99.90
10282;DHT22;5186;59.472;18.048;2023-11-22T05:01:57;-5.70;99.90
10282;DHT22;5186;59.472;18.048;2023-11-22T05:04:22;-5.70;99.90
10282;DHT22;5186;59.472;18.048;2023-11-22T05:06:48;-5.70;99.90
10282;DHT22;5186;59.472;18.048;2023-11-22T05:09:13;-5.70;99.90
10282;DHT22;5186;59.472;18.048;2023-11-22T05:11:39;-5.70;99.90
10282;DHT22;5186;59.472;18.048;2023-11-22T05:14:10;-5.60;99.90
10282;DHT22;5186;59.472;18.048;2023-11-22T05:16:35;-5.60;99.90
10282;DHT22;5186;59.472;18.048;2023-11-22T05:19:01;-5.60;99.90
10282;DHT22;5186;59.472;18.048;2023-11-22T05:21:26;-5.60;99.90
10282;DHT22;5186;59.472;18.048;2023-11-22T05:23:52;-5.60;99.90
10282;DHT22;5186;59.472;18.048;2023-11-22T05:26:20;-5.60;99.90
10282;DHT22;5186;59.472;18.048;2023-11-22T05:28:46;-5.60;99.90
10282;DHT22;5186;59.472;18.048;2023-11-22T05:31:13;-5.50;99.90
10282;DHT22;5186;59.472;18.048;2023-11-22T05:33:38;-5.50;99.90
10282;DHT22;5186;59.472;18.048;2023-11-22T05:36:05;-5.50;99.90
10282;DHT22;5186;59.472;18.048;2023-11-22T05:38:31;-5.50;99.90
10282;DHT22;5186;59.472;18.048;2023-11-22T05:40:59;-5.50;99.90
10282;DHT22;5186;59.472;18.048;2023-11-22T05:43:25;-5.50;99.90
10282;DHT22;5186;59.472;18.048;2023-11-22T05:45:55;-5.50;99.90
10282;DHT22;5186;59.472;18.048;2023-11-22T05:48:21;-5.50;99.90
10282;DHT22;5186;59.472;18.048;2023-11-22T05:50:48;-5.50;99.90
10282;DHT22;5186;59.472;18.048;2023-11-22T05:53:14;-5.50;99.90
10282;DHT22;5186;59.472;18.048;2023-11-22T05:55:45;-5.50;99.90
10282;DHT22;5186;59.472;18.048;2023-11-22T05:58:13;-5.50;99.90
10282;DHT22;5186;59.472;18.048;2023-11-22T06:00:42;-5.50;99.90
10282;DHT22;5186;59.472;18.048;2023-11-22T06:03:08;-5.40;99.90
10282;DHT22;5186;59.472;18.048;2023-11-22T06:05:33;-5.40;99.90
10282;DHT22;5186;59.472;18.048;2023-11-22T06:07:59;-5.30;99.90
10282;DHT22;5186;59.472;18.048;2023-11-22T06:10:25;-5.20;99.90
10282;DHT22;5186;59.472;18.048;2023-11-22T06:12:50;-5.10;99.90
10282;DHT22;5186;59.472;18.048;2023-11-22T06:15:16;-5.00;99.90
10282;DHT22;5186;59.472;18.048;2023-11-22T06:17:43;-4.90;99.90
10282;DHT22;5186;59.472;18.048;2023-11-22T06:20:09;-4.70;99.90
10282;DHT22;5186;59.472;18.048;2023-11-22T06:22:36;-4.60;99.90
10282;DHT22;5186;59.472;18.048;2023-11-22T06:25:09;-4.50;99.90
10282;DHT22;5186;59.472;18.048;2023-11-22T06:27:36;-4.30;99.90
10282;DHT22;5186;59.472;18.048;2023-11-22T06:30:02;-4.20;99.90
10282;DHT22;5186;59.472;18.048;2023-11-22T06:32:28;-4.00;99.90
10282;DHT22;5186;59.472;18.048;2023-11-22T06:34:54;-3.90;99.90
10282;DHT22;5186;59.472;18.048;2023-11-22T06:37:20;-3.80;99.90
10282;DHT22;5186;59.472;18.048;2023-11-22T06:39:46;-3.70;99.90
10282;DHT22;5186;59.472;18.048;2023-11-22T06:42:12;-3.60;99.90
10282;DHT22;5186;59.472;18.048;2023-11-22T06:44:38;-3.50;99.90
10282;DHT22;5186;59.472;18.048;2023-11-22T06:47:05;-3.40;99.90
10282;DHT22;5186;59.472;18.048;2023-11-22T06:49:31;-3.30;99.90
10282;DHT22;5186;59.472;18.048;2023-11-22T06:51:57;-3.20;99.90
10282;DHT22;5186;59.472;18.048;2023-11-22T06:54:23;-3.20;99.90
10282;DHT22;5186;59.472;18.048;2023-11-22T06:56:48;-3.10;99.90
10282;DHT22;5186;59.472;18.048;2023-11-22T06:59:16;-3.10;99.90
10282;DHT22;5186;59.472;18.048;2023-11-22T07:01:42;-3.00;99.90
10282;DHT22;5186;59.472;18.048;2023-11-22T07:04:07;-3.00;99.90
10282;DHT22;5186;59.472;18.048;2023-11-22T07:06:33;-2.90;99.90
10282;DHT22;5186;59.472;18.048;2023-11-22T07:08:59;-2.90;99.90
10282;DHT22;5186;59.472;18.048;2023-11-22T07:11:25;-2.90;99.90
10282;DHT22;5186;59.472;18.048;2023-11-22T07:13:51;-2.80;99.90
10282;DHT22;5186;59.472;18.048;2023-11-22T07:16:18;-2.80;99.90
10282;DHT22;5186;59.472;18.048;2023-11-22T07:18:44;-2.80;99.90
10282;DHT22;5186;59.472;18.048;2023-11-22T07:21:11;-2.70;99.90
10282;DHT22;5186;59.472;18.048;2023-11-22T07:23:37;-2.60;99.90
10282;DHT22;5186;59.472;18.048;2023-11-22T07:26:03;-2.60;99.90
10282;DHT22;5186;59.472;18.048;2023-11-22T07:28:29;-2.60;99.90
10282;DHT22;5186;59.472;18.048;2023-11-22T07:30:56;-2.50;99.90
10282;DHT22;5186;59.472;18.048;2023-11-22T07:33:22;-2.40;99.90
10282;DHT22;5186;59.472;18.048;2023-11-22T07:35:47;-2.40;99.90
10282;DHT22;5186;59.472;18.048;2023-11-22T07:38:13;-2.30;99.90
10282;DHT22;5186;59.472;18.048;2023-11-22T07:40:39;-2.30;99.90
10282;DHT22;5186;59.472;18.048;2023-11-22T07:43:05;-2.20;99.90
10282;DHT22;5186;59.472;18.048;2023-11-22T07:45:31;-2.20;99.90
10282;DHT22;5186;59.472;18.048;2023-11-22T07:47:59;-2.10;99.90
10282;DHT22;5186;59.472;18.048;2023-11-22T07:50:26;-2.10;99.90
10282;DHT22;5186;59.472;18.048;2023-11-22T07:52:52;-2.00;99.90
10282;DHT22;5186;59.472;18.048;2023-11-22T07:55:17;-2.00;99.90
10282;DHT22;5186;59.472;18.048;2023-11-22T07:57:48;-2.00;99.90
10282;DHT22;5186;59.472;18.048;2023-11-22T08:00:15;-1.90;99.90
10282;DHT22;5186;59.472;18.048;2023-11-22T08:02:45;-1.80;99.90
10282;DHT22;5186;59.472;18.048;2023-11-22T08:05:10;-1.80;99.90
10282;DHT22;5186;59.472;18.048;2023-11-22T08:07:37;-1.80;99.90
10282;DHT22;5186;59.472;18.048;2023-11-22T08:10:06;-1.70;99.90
10282;DHT22;5186;59.472;18.048;2023-11-22T08:12:35;-1.70;99.90
10282;DHT22;5186;59.472;18.048;2023-11-22T08:15:01;-1.70;99.90
10282;DHT22;5186;59.472;18.048;2023-11-22T08:17:29;-1.60;99.90
10282;DHT22;5186;59.472;18.048;2023-11-22T08:19:54;-1.60;99.90
10282;DHT22;5186;59.472;18.048;2023-11-22T08:22:21;-1.50;99.90
10282;DHT22;5186;59.472;18.048;2023-11-22T08:24:46;-1.50;99.90
10282;DHT22;5186;59.472;18.048;2023-11-22T08:27:13;-1.40;99.90
10282;DHT22;5186;59.472;18.048;2023-11-22T08:29:40;-1.40;99.90
10282;DHT22;5186;59.472;18.048;2023-11-22T08:32:06;-1.40;99.90
10282;DHT22;5186;59.472;18.048;2023-11-22T08:34:32;-1.30;99.90
10282;DHT22;5186;59.472;18.048;2023-11-22T08:36:57;-1.30;99.90
10282;DHT22;5186;59.472;18.048;2023-11-22T08:39:24;-1.20;99.90
10282;DHT22;5186;59.472;18.048;2023-11-22T08:41:50;-1.20;99.90
10282;DHT22;5186;59.472;18.048;2023-11-22T08:44:15;-1.10;99.90
10282;DHT22;5186;59.472;18.048;2023-11-22T08:46:41;-1.10;99.90
10282;DHT22;5186;59.472;18.048;2023-11-22T08:49:07;-1.00;99.90
10282;DHT22;5186;59.472;18.048;2023-11-22T08:51:32;-1.00;99.90
10282;DHT22;5186;59.472;18.048;2023-11-22T08:53:59;-1.00;99.90
10282;DHT22;5186;59.472;18.048;2023-11-22T08:56:24;-0.90;99.90
10282;DHT22;5186;59.472;18.048;2023-11-22T08:58:50;-0.90;99.90
10282;DHT22;5186;59.472;18.048;2023-11-22T09:01:15;-0.90;99.90
10282;DHT22;5186;59.472;18.048;2023-11-22T09:03:41;-0.80;99.90
10282;DHT22;5186;59.472;18.048;2023-11-22T09:06:07;-0.80;99.90
10282;DHT22;5186;59.472;18.048;2023-11-22T09:08:32;-0.80;99.90
10282;DHT22;5186;59.472;18.048;2023-11-22T09:10:58;-0.70;99.90
10282;DHT22;5186;59.472;18.048;2023-11-22T09:13:23;-0.70;99.90
10282;DHT22;5186;59.472;18.048;2023-11-22T09:15:50;-0.60;99.90
10282;DHT22;5186;59.472;18.048;2023-11-22T09:18:16;-0.60;99.90
10282;DHT22;5186;59.472;18.048;2023-11-22T09:20:42;-0.50;99.90
10282;DHT22;5186;59.472;18.048;2023-11-22T09:23:10;-0.50;99.90
10282;DHT22;5186;59.472;18.048;2023-11-22T09:25:37;-0.50;99.90
10282;DHT22;5186;59.472;18.048;2023-11-22T09:28:03;-0.40;99.90
10282;DHT22;5186;59.472;18.048;2023-11-22T09:30:32;-0.40;99.90
10282;DHT22;5186;59.472;18.048;2023-11-22T09:33:11;-0.40;99.90
10282;DHT22;5186;59.472;18.048;2023-11-22T09:35:40;-0.30;99.90
10282;DHT22;5186;59.472;18.048;2023-11-22T09:38:08;-0.30;99.90
10282;DHT22;5186;59.472;18.048;2023-11-22T09:40:46;-0.20;99.90
10282;DHT22;5186;59.472;18.048;2023-11-22T09:43:14;-0.20;99.90
10282;DHT22;5186;59.472;18.048;2023-11-22T09:45:50;-0.20;99.90
10282;DHT22;5186;59.472;18.048;2023-11-22T09:48:20;-0.20;99.90
10282;DHT22;5186;59.472;18.048;2023-11-22T09:51:09;-0.10;99.90
10282;DHT22;5186;59.472;18.048;2023-11-22T09:56:09;-0.10;99.90
10282;DHT22;5186;59.472;18.048;2023-11-22T09:58:37;-0.10;99.90
10282;DHT22;5186;59.472;18.048;2023-11-22T10:01:05;-0.10;99.90
10282;DHT22;5186;59.472;18.048;2023-11-22T10:03:31;0.00;99.90
10282;DHT22;5186;59.472;18.048;2023-11-22T10:05:57;0.00;99.90
10282;DHT22;5186;59.472;18.048;2023-11-22T10:08:27;0.00;99.90
10282;DHT22;5186;59.472;18.048;2023-11-22T10:10:53;0.10;99.90
10282;DHT22;5186;59.472;18.048;2023-11-22T10:13:20;0.10;99.90
10282;DHT22;5186;59.472;18.048;2023-11-22T10:15:49;0.10;99.90
10282;DHT22;5186;59.472;18.048;2023-11-22T10:18:15;0.10;99.90
10282;DHT22;5186;59.472;18.048;2023-11-22T10:20:43;0.10;99.90
10282;DHT22;5186;59.472;18.048;2023-11-22T10:23:13;0.10;99.90
10282;DHT22;5186;59.472;18.048;2023-11-22T10:25:49;0.20;99.90
10282;DHT22;5186;59.472;18.048;2023-11-22T10:28:17;0.20;99.90
10282;DHT22;5186;59.472;18.048;2023-11-22T10:30:46;0.30;99.90
10282;DHT22;5186;59.472;18.048;2023-11-22T10:33:14;0.30;99.90
10282;DHT22;5186;59.472;18.048;2023-11-22T10:35:46;0.20;99.90
10282;DHT22;5186;59.472;18.048;2023-11-22T10:38:17;0.30;99.90
10282;DHT22;5186;59.472;18.048;2023-11-22T10:40:43;0.30;99.90
10282;DHT22;5186;59.472;18.048;2023-11-22T10:43:11;0.30;99.90
10282;DHT22;5186;59.472;18.048;2023-11-22T10:45:37;0.30;99.90
10282;DHT22;5186;59.472;18.048;2023-11-22T10:48:04;0.30;99.90
10282;DHT22;5186;59.472;18.048;2023-11-22T10:50:30;0.40;99.90
10282;DHT22;5186;59.472;18.048;2023-11-22T10:53:01;0.40;99.90
10282;DHT22;5186;59.472;18.048;2023-11-22T10:55:32;0.40;99.90
10282;DHT22;5186;59.472;18.048;2023-11-22T10:58:02;0.40;99.90
10282;DHT22;5186;59.472;18.048;2023-11-22T11:00:29;0.40;99.90
10282;DHT22;5186;59.472;18.048;2023-11-22T11:03:03;0.50;99.90
10282;DHT22;5186;59.472;18.048;2023-11-22T11:05:33;0.50;99.90
10282;DHT22;5186;59.472;18.048;2023-11-22T11:08:06;0.50;99.90
10282;DHT22;5186;59.472;18.048;2023-11-22T11:10:41;0.50;99.90
10282;DHT22;5186;59.472;18.048;2023-11-22T11:13:08;0.50;99.90
10282;DHT22;5186;59.472;18.048;2023-11-22T11:15:41;0.60;99.90
10282;DHT22;5186;59.472;18.048;2023-11-22T11:18:10;0.60;99.90
10282;DHT22;5186;59.472;18.048;2023-11-22T11:20:51;0.60;99.90
10282;DHT22;5186;59.472;18.048;2023-11-22T11:23:20;0.60;99.90
10282;DHT22;5186;59.472;18.048;2023-11-22T11:25:49;0.60;99.90
10282;DHT22;5186;59.472;18.048;2023-11-22T11:28:14;0.60;99.90
10282;DHT22;5186;59.472;18.048;2023-11-22T11:30:44;0.60;99.90
10282;DHT22;5186;59.472;18.048;2023-11-22T11:33:12;0.70;99.90
10282;DHT22;5186;59.472;18.048;2023-11-22T11:35:46;0.70;99.90
10282;DHT22;5186;59.472;18.048;2023-11-22T11:38:14;0.70;99.90
10282;DHT22;5186;59.472;18.048;2023-11-22T11:40:41;0.80;99.90
10282;DHT22;5186;59.472;18.048;2023-11-22T11:43:08;0.80;99.90
10282;DHT22;5186;59.472;18.048;2023-11-22T11:45:39;0.80;99.90
10282;DHT22;5186;59.472;18.048;2023-11-22T11:48:08;0.80;99.90
10282;DHT22;5186;59.472;18.048;2023-11-22T11:50:34;0.90;99.90
10282;DHT22;5186;59.472;18.048;2023-11-22T11:52:59;0.90;99.90
10282;DHT22;5186;59.472;18.048;2023-11-22T11:55:26;0.90;99.90
10282;DHT22;5186;59.472;18.048;2023-11-22T11:57:56;0.90;99.90
10282;DHT22;5186;59.472;18.048;2023-11-22T12:00:22;0.90;99.90
10282;DHT22;5186;59.472;18.048;2023-11-22T12:02:50;1.00;99.90
10282;DHT22;5186;59.472;18.048;2023-11-22T12:05:18;1.00;99.90
10282;DHT22;5186;59.472;18.048;2023-11-22T12:07:43;1.00;99.90
10282;DHT22;5186;59.472;18.048;2023-11-22T12:10:09;1.10;99.90
10282;DHT22;5186;59.472;18.048;2023-11-22T12:12:35;1.10;99.90
10282;DHT22;5186;59.472;18.048;2023-11-22T12:15:01;1.10;99.90
10282;DHT22;5186;59.472;18.048;2023-11-22T12:17:27;1.20;99.90
10282;DHT22;5186;59.472;18.048;2023-11-22T12:19:53;1.20;99.90
10282;DHT22;5186;59.472;18.048;2023-11-22T12:22:20;1.20;99.90
10282;DHT22;5186;59.472;18.048;2023-11-22T12:24:46;1.20;99.90
10282;DHT22;5186;59.472;18.048;2023-11-22T12:27:11;1.30;99.90
10282;DHT22;5186;59.472;18.048;2023-11-22T12:29:37;1.30;99.90
10282;DHT22;5186;59.472;18.048;2023-11-22T12:32:05;1.30;99.90
10282;DHT22;5186;59.472;18.048;2023-11-22T12:34:32;1.30;99.90
10282;DHT22;5186;59.472;18.048;2023-11-22T12:36:59;1.40;99.90
10282;DHT22;5186;59.472;18.048;2023-11-22T12:39:25;1.40;99.90
10282;DHT22;5186;59.472;18.048;2023-11-22T12:41:52;1.40;99.90
10282;DHT22;5186;59.472;18.048;2023-11-22T12:44:18;1.50;99.90
10282;DHT22;5186;59.472;18.048;2023-11-22T12:46:49;1.50;99.90
10282;DHT22;5186;59.472;18.048;2023-11-22T12:49:17;1.50;99.90
10282;DHT22;5186;59.472;18.048;2023-11-22T12:51:55;1.60;99.90
10282;DHT22;5186;59.472;18.048;2023-11-22T12:54:20;1.60;99.90
10282;DHT22;5186;59.472;18.048;2023-11-22T12:56:50;1.60;99.90
10282;DHT22;5186;59.472;18.048;2023-11-22T12:59:16;1.60;99.90
10282;DHT22;5186;59.472;18.048;2023-11-22T13:01:44;1.60;99.90
10282;DHT22;5186;59.472;18.048;2023-11-22T13:04:09;1.60;99.90
10282;DHT22;5186;59.472;18.048;2023-11-22T13:06:35;1.60;99.90
10282;DHT22;5186;59.472;18.048;2023-11-22T13:09:01;1.60;99.90
10282;DHT22;5186;59.472;18.048;2023-11-22T13:11:26;1.60;99.90
10282;DHT22;5186;59.472;18.048;2023-11-22T13:13:52;1.60;99.90
10282;DHT22;5186;59.472;18.048;2023-11-22T13:16:17;1.60;99.90
10282;DHT22;5186;59.472;18.048;2023-11-22T13:18:44;1.60;99.90
10282;DHT22;5186;59.472;18.048;2023-11-22T13:21:09;1.60;99.90
10282;DHT22;5186;59.472;18.048;2023-11-22T13:23:35;1.60;99.90
10282;DHT22;5186;59.472;18.048;2023-11-22T13:26:00;1.60;99.90
10282;DHT22;5186;59.472;18.048;2023-11-22T13:28:27;1.60;99.90
10282;DHT22;5186;59.472;18.048;2023-11-22T13:30:52;1.70;99.90
10282;DHT22;5186;59.472;18.048;2023-11-22T13:33:19;1.70;99.90
10282;DHT22;5186;59.472;18.048;2023-11-22T13:35:44;1.80;99.90
10282;DHT22;5186;59.472;18.048;2023-11-22T13:38:12;1.70;99.90
10282;DHT22;5186;59.472;18.048;2023-11-22T13:40:39;1.70;99.90
10282;DHT22;5186;59.472;18.048;2023-11-22T13:43:05;1.80;99.90
10282;DHT22;5186;59.472;18.048;2023-11-22T13:45:32;1.80;99.90
10282;DHT22;5186;59.472;18.048;2023-11-22T13:47:58;1.80;99.90
10282;DHT22;5186;59.472;18.048;2023-11-22T13:50:32;1.80;99.90
10282;DHT22;5186;59.472;18.048;2023-11-22T13:52:58;1.80;99.90
10282;DHT22;5186;59.472;18.048;2023-11-22T13:55:24;1.80;99.90
10282;DHT22;5186;59.472;18.048;2023-11-22T13:57:54;1.80;99.90
10282;DHT22;5186;59.472;18.048;2023-11-22T14:00:21;1.70;99.90
10282;DHT22;5186;59.472;18.048;2023-11-22T14:02:52;1.70;99.90
10282;DHT22;5186;59.472;18.048;2023-11-22T14:05:24;1.70;99.90
10282;DHT22;5186;59.472;18.048;2023-11-22T14:07:50;1.70;99.90
10282;DHT22;5186;59.472;18.048;2023-11-22T14:10:17;1.80;99.90
10282;DHT22;5186;59.472;18.048;2023-11-22T14:12:43;1.80;99.90
10282;DHT22;5186;59.472;18.048;2023-11-22T14:15:10;1.80;99.90
10282;DHT22;5186;59.472;18.048;2023-11-22T14:17:36;1.80;99.90
10282;DHT22;5186;59.472;18.048;2023-11-22T14:20:05;1.80;99.90
10282;DHT22;5186;59.472;18.048;2023-11-22T14:22:32;1.80;99.90
10282;DHT22;5186;59.472;18.048;2023-11-22T14:24:58;1.80;99.90
10282;DHT22;5186;59.472;18.048;2023-11-22T14:27:23;1.80;99.90
10282;DHT22;5186;59.472;18.048;2023-11-22T14:29:49;1.80;99.90
10282;DHT22;5186;59.472;18.048;2023-11-22T14:32:16;1.80;99.90
10282;DHT22;5186;59.472;18.048;2023-11-22T14:34:43;1.80;99.90
10282;DHT22;5186;59.472;18.048;2023-11-22T14:37:10;1.90;99.90
10282;DHT22;5186;59.472;18.048;2023-11-22T14:39:36;1.90;99.90
10282;DHT22;5186;59.472;18.048;2023-11-22T14:42:02;1.90;99.90
10282;DHT22;5186;59.472;18.048;2023-11-22T14:44:28;1.90;99.90
10282;DHT22;5186;59.472;18.048;2023-11-22T14:46:53;1.90;99.90
10282;DHT22;5186;59.472;18.048;2023-11-22T14:49:19;1.90;99.90
10282;DHT22;5186;59.472;18.048;2023-11-22T14:51:46;1.80;99.90
10282;DHT22;5186;59.472;18.048;2023-11-22T14:54:12;1.90;99.90
10282;DHT22;5186;59.472;18.048;2023-11-22T14:56:37;2.00;99.90
10282;DHT22;5186;59.472;18.048;2023-11-22T14:59:04;2.00;99.90
10282;DHT22;5186;59.472;18.048;2023-11-22T15:01:29;2.00;99.90
10282;DHT22;5186;59.472;18.048;2023-11-22T15:03:55;2.00;99.90
10282;DHT22;5186;59.472;18.048;2023-11-22T15:06:21;2.10;99.90
10282;DHT22;5186;59.472;18.048;2023-11-22T15:08:46;2.10;99.90
10282;DHT22;5186;59.472;18.048;2023-11-22T15:11:13;2.10;99.90
10282;DHT22;5186;59.472;18.048;2023-11-22T15:13:41;2.20;99.90
10282;DHT22;5186;59.472;18.048;2023-11-22T15:16:07;2.20;99.90
10282;DHT22;5186;59.472;18.048;2023-11-22T15:18:32;2.20;99.90
10282;DHT22;5186;59.472;18.048;2023-11-22T15:20:58;2.20;99.90
10282;DHT22;5186;59.472;18.048;2023-11-22T15:23:23;2.30;99.90
10282;DHT22;5186;59.472;18.048;2023-11-22T15:25:49;2.30;99.90
10282;DHT22;5186;59.472;18.048;2023-11-22T15:28:15;2.30;99.90
10282;DHT22;5186;59.472;18.048;2023-11-22T15:30:48;2.40;99.90
10282;DHT22;5186;59.472;18.048;2023-11-22T15:33:25;2.30;99.90
10282;DHT22;5186;59.472;18.048;2023-11-22T15:35:51;2.30;99.90
10282;DHT22;5186;59.472;18.048;2023-11-22T15:38:16;2.30;99.90